createdAt,value
2017-09-26T00:00:04.633Z,0
2017-09-26T00:01:06.241Z,0
2017-09-26T00:02:07.850Z,0
2017-09-26T00:03:09.460Z,0
2017-09-26T00:04:11.074Z,0
2017-09-26T00:05:12.686Z,0
2017-09-26T00:06:14.297Z,0
2017-09-26T00:07:15.910Z,0
2017-09-26T00:08:17.517Z,0
2017-09-26T00:09:19.133Z,0
2017-09-26T00:10:20.741Z,0
2017-09-26T00:11:22.356Z,0
2017-09-26T00:12:23.964Z,0
2017-09-26T00:13:25.580Z,0
2017-09-26T00:14:27.187Z,0
2017-09-26T00:15:28.801Z,0
2017-09-26T00:16:30.414Z,0
2017-09-26T00:17:32.028Z,0
2017-09-26T00:18:33.634Z,0
2017-09-26T00:19:35.240Z,0
2017-09-26T00:20:36.857Z,0
2017-09-26T00:21:38.462Z,0
2017-09-26T00:22:40.072Z,0
2017-09-26T00:23:41.686Z,0
2017-09-26T00:24:43.299Z,0
2017-09-26T00:25:44.908Z,0
2017-09-26T00:26:46.517Z,0
2017-09-26T00:27:48.134Z,0
2017-09-26T00:28:49.747Z,0
2017-09-26T00:29:51.354Z,0
2017-09-26T00:30:52.969Z,0
2017-09-26T00:31:54.577Z,0
2017-09-26T00:32:56.185Z,0
2017-09-26T00:33:57.802Z,0
2017-09-26T00:34:59.412Z,0
2017-09-26T00:36:01.024Z,0
2017-09-26T00:37:02.632Z,0
2017-09-26T00:38:04.248Z,0
2017-09-26T00:39:05.856Z,0
2017-09-26T00:40:07.474Z,0
2017-09-26T00:41:09.086Z,0
2017-09-26T00:42:10.698Z,0
2017-09-26T00:43:12.305Z,0
2017-09-26T00:44:13.924Z,0
2017-09-26T00:45:15.532Z,0
2017-09-26T00:46:17.138Z,0
2017-09-26T00:47:18.751Z,0
2017-09-26T00:48:20.365Z,0
2017-09-26T00:49:21.972Z,0
2017-09-26T00:50:23.585Z,0
2017-09-26T00:51:25.191Z,0
2017-09-26T00:52:26.805Z,0
2017-09-26T00:53:28.417Z,0
2017-09-26T00:54:30.030Z,0
2017-09-26T00:55:31.645Z,0
2017-09-26T00:56:33.256Z,0
2017-09-26T00:57:34.872Z,0
2017-09-26T00:58:36.477Z,0
2017-09-26T00:59:38.094Z,0
2017-09-26T01:00:39.699Z,0
2017-09-26T01:01:41.316Z,0
2017-09-26T01:02:42.924Z,0
2017-09-26T01:03:44.535Z,0
2017-09-26T01:04:46.143Z,0
2017-09-26T01:05:47.756Z,0
2017-09-26T01:06:49.364Z,0
2017-09-26T01:07:50.979Z,0
2017-09-26T01:08:52.587Z,0
2017-09-26T01:09:54.196Z,0
2017-09-26T01:10:55.805Z,0
2017-09-26T01:11:57.418Z,0
2017-09-26T01:12:59.025Z,0
2017-09-26T01:14:00.638Z,0
2017-09-26T01:15:02.249Z,0
2017-09-26T01:16:03.861Z,0
2017-09-26T01:17:05.468Z,0
2017-09-26T01:18:07.082Z,0
2017-09-26T01:19:08.689Z,0
2017-09-26T01:20:10.302Z,0
2017-09-26T01:21:11.907Z,0
2017-09-26T01:22:13.519Z,0
2017-09-26T01:23:15.148Z,0
2017-09-26T01:24:16.761Z,0
2017-09-26T01:25:18.381Z,0
2017-09-26T01:26:19.993Z,0
2017-09-26T01:27:21.610Z,0
2017-09-26T01:28:23.220Z,0
2017-09-26T01:29:24.843Z,0
2017-09-26T01:30:26.454Z,0
2017-09-26T01:31:28.076Z,0
2017-09-26T01:32:29.694Z,0
2017-09-26T01:33:31.310Z,0
2017-09-26T01:34:32.923Z,0
2017-09-26T01:35:34.540Z,0
2017-09-26T01:36:36.159Z,0
2017-09-26T01:37:37.774Z,0
2017-09-26T01:38:39.393Z,0
2017-09-26T01:39:41.007Z,0
2017-09-26T01:40:42.623Z,0
2017-09-26T01:41:44.235Z,0
2017-09-26T01:42:45.855Z,0
2017-09-26T01:43:47.468Z,0
2017-09-26T01:44:49.090Z,0
2017-09-26T01:45:50.703Z,0
2017-09-26T01:46:52.324Z,0
2017-09-26T01:47:53.933Z,0
2017-09-26T01:48:55.552Z,0
2017-09-26T01:49:57.165Z,0
2017-09-26T01:50:58.782Z,0
2017-09-26T01:52:00.399Z,0
2017-09-26T01:53:02.015Z,0
2017-09-26T01:54:03.634Z,0
2017-09-26T01:55:05.240Z,0
2017-09-26T01:56:06.860Z,0
2017-09-26T01:57:08.481Z,0
2017-09-26T01:58:10.091Z,0
2017-09-26T01:59:11.707Z,0
2017-09-26T02:00:13.326Z,0
2017-09-26T02:01:14.944Z,0
2017-09-26T02:02:16.557Z,0
2017-09-26T02:03:18.166Z,0
2017-09-26T02:04:19.790Z,0
2017-09-26T02:05:21.408Z,0
2017-09-26T02:06:23.021Z,0
2017-09-26T02:07:24.634Z,0
2017-09-26T02:08:26.257Z,0
2017-09-26T02:09:27.868Z,0
2017-09-26T02:10:29.488Z,0
2017-09-26T02:11:31.105Z,0
2017-09-26T02:12:32.715Z,0
2017-09-26T02:13:34.330Z,0
2017-09-26T02:14:35.953Z,0
2017-09-26T02:15:37.569Z,0
2017-09-26T02:16:39.183Z,0
2017-09-26T02:17:40.803Z,0
2017-09-26T02:18:42.415Z,0
2017-09-26T02:19:44.029Z,0
2017-09-26T02:20:45.649Z,0
2017-09-26T02:21:47.266Z,0
2017-09-26T02:22:48.881Z,0
2017-09-26T02:23:50.491Z,0
2017-09-26T02:24:52.113Z,0
2017-09-26T02:25:53.731Z,0
2017-09-26T02:26:55.343Z,0
2017-09-26T02:27:56.968Z,0
2017-09-26T02:28:58.589Z,0
2017-09-26T02:30:00.211Z,0
2017-09-26T02:31:01.821Z,0
2017-09-26T02:32:03.434Z,0
2017-09-26T02:33:05.053Z,0
2017-09-26T02:34:06.665Z,0
2017-09-26T02:35:08.288Z,0
2017-09-26T02:36:09.900Z,0
2017-09-26T02:37:11.525Z,0
2017-09-26T02:38:13.134Z,0
2017-09-26T02:39:14.752Z,0
2017-09-26T02:40:16.366Z,0
2017-09-26T02:41:17.983Z,0
2017-09-26T02:42:19.596Z,0
2017-09-26T02:43:21.217Z,0
2017-09-26T02:44:22.830Z,0
2017-09-26T02:45:24.448Z,0
2017-09-26T02:46:26.057Z,0
2017-09-26T02:47:27.685Z,0
2017-09-26T02:48:29.289Z,0
2017-09-26T02:49:30.910Z,0
2017-09-26T02:50:32.531Z,0
2017-09-26T02:51:34.144Z,0
2017-09-26T02:52:35.761Z,0
2017-09-26T02:53:37.369Z,0
2017-09-26T02:54:38.992Z,0
2017-09-26T02:55:40.600Z,0
2017-09-26T02:56:42.222Z,0
2017-09-26T02:57:43.833Z,0
2017-09-26T02:58:45.454Z,0
2017-09-26T02:59:47.063Z,0
2017-09-26T03:00:48.682Z,0
2017-09-26T03:01:50.299Z,0
2017-09-26T03:02:51.920Z,0
2017-09-26T03:03:53.533Z,0
2017-09-26T03:04:55.154Z,0
2017-09-26T03:05:56.769Z,0
2017-09-26T03:06:58.388Z,0
2017-09-26T03:08:00.000Z,0
2017-09-26T03:09:01.613Z,0
2017-09-26T03:10:03.232Z,0
2017-09-26T03:11:04.854Z,0
2017-09-26T03:12:06.465Z,0
2017-09-26T03:13:08.079Z,0
2017-09-26T03:14:09.698Z,0
2017-09-26T03:15:11.315Z,0
2017-09-26T03:16:12.924Z,0
2017-09-26T03:17:14.538Z,0
2017-09-26T03:18:16.158Z,0
2017-09-26T03:19:17.774Z,0
2017-09-26T03:20:19.388Z,0
2017-09-26T03:21:21.000Z,0
2017-09-26T03:22:22.618Z,0
2017-09-26T03:23:24.233Z,0
2017-09-26T03:24:25.880Z,0
2017-09-26T03:25:27.499Z,0
2017-09-26T03:26:29.112Z,0
2017-09-26T03:27:30.727Z,0
2017-09-26T03:28:32.344Z,0
2017-09-26T03:29:33.963Z,0
2017-09-26T03:30:35.575Z,0
2017-09-26T03:31:37.190Z,0
2017-09-26T03:32:38.802Z,0
2017-09-26T03:33:40.413Z,0
2017-09-26T03:34:42.037Z,0
2017-09-26T03:35:43.654Z,0
2017-09-26T03:36:45.272Z,0
2017-09-26T03:37:46.889Z,0
2017-09-26T03:38:48.498Z,0
2017-09-26T03:39:50.110Z,0
2017-09-26T03:40:51.735Z,0
2017-09-26T03:41:53.347Z,0
2017-09-26T03:42:54.970Z,0
2017-09-26T03:43:56.578Z,0
2017-09-26T03:44:58.197Z,0
2017-09-26T03:45:59.809Z,0
2017-09-26T03:47:01.430Z,0
2017-09-26T03:48:03.046Z,0
2017-09-26T03:49:04.666Z,0
2017-09-26T03:50:06.281Z,0
2017-09-26T03:51:07.889Z,0
2017-09-26T03:52:09.510Z,0
2017-09-26T03:53:11.128Z,0
2017-09-26T03:54:12.745Z,0
2017-09-26T03:55:14.367Z,0
2017-09-26T03:56:15.987Z,0
2017-09-26T03:57:17.602Z,0
2017-09-26T03:58:19.219Z,0
2017-09-26T03:59:20.830Z,0
2017-09-26T04:00:22.447Z,0
2017-09-26T04:01:24.060Z,0
2017-09-26T04:02:25.679Z,0
2017-09-26T04:03:27.293Z,0
2017-09-26T04:04:28.903Z,0
2017-09-26T04:05:30.518Z,0
2017-09-26T04:06:32.137Z,0
2017-09-26T04:07:33.762Z,0
2017-09-26T04:08:35.368Z,0
2017-09-26T04:09:36.986Z,0
2017-09-26T04:10:38.601Z,0
2017-09-26T04:11:40.216Z,0
2017-09-26T04:12:41.827Z,0
2017-09-26T04:13:43.445Z,0
2017-09-26T04:14:45.065Z,0
2017-09-26T04:15:46.676Z,0
2017-09-26T04:16:48.292Z,0
2017-09-26T04:17:49.910Z,0
2017-09-26T04:18:51.529Z,0
2017-09-26T04:19:53.140Z,0
2017-09-26T04:20:54.762Z,0
2017-09-26T04:21:56.378Z,0
2017-09-26T04:22:57.993Z,0
2017-09-26T04:23:59.607Z,0
2017-09-26T04:25:01.227Z,0
2017-09-26T04:26:02.840Z,0
2017-09-26T04:27:04.460Z,0
2017-09-26T04:28:06.070Z,0
2017-09-26T04:29:07.686Z,0
2017-09-26T04:30:09.306Z,0
2017-09-26T04:31:10.926Z,0
2017-09-26T04:32:12.537Z,0
2017-09-26T04:33:14.149Z,0
2017-09-26T04:34:15.769Z,0
2017-09-26T04:35:17.384Z,0
2017-09-26T04:36:18.995Z,0
2017-09-26T04:37:20.608Z,0
2017-09-26T04:38:22.222Z,0
2017-09-26T04:39:23.842Z,0
2017-09-26T04:40:25.453Z,0
2017-09-26T04:41:27.067Z,0
2017-09-26T04:42:28.684Z,0
2017-09-26T04:43:30.302Z,0
2017-09-26T04:44:31.918Z,0
2017-09-26T04:45:33.529Z,0
2017-09-26T04:46:35.150Z,0
2017-09-26T04:47:36.762Z,0
2017-09-26T04:48:38.382Z,0
2017-09-26T04:49:39.997Z,0
2017-09-26T04:50:41.612Z,0
2017-09-26T04:51:43.223Z,0
2017-09-26T04:52:44.844Z,0
2017-09-26T04:53:46.456Z,0
2017-09-26T04:54:48.070Z,0
2017-09-26T04:55:49.721Z,0
2017-09-26T04:56:51.337Z,0
2017-09-26T04:57:52.950Z,0
2017-09-26T04:58:54.569Z,0
2017-09-26T04:59:56.181Z,0
2017-09-26T05:00:57.799Z,0
2017-09-26T05:01:59.416Z,0
2017-09-26T05:03:01.027Z,0
2017-09-26T05:04:02.648Z,0
2017-09-26T05:05:04.258Z,0
2017-09-26T05:06:05.878Z,0
2017-09-26T05:07:07.488Z,0
2017-09-26T05:08:09.109Z,0
2017-09-26T05:09:10.721Z,0
2017-09-26T05:10:12.342Z,0
2017-09-26T05:11:13.960Z,0
2017-09-26T05:12:15.576Z,0
2017-09-26T05:13:17.190Z,0
2017-09-26T05:14:18.820Z,0
2017-09-26T05:15:20.434Z,0
2017-09-26T05:16:22.053Z,0
2017-09-26T05:17:23.670Z,0
2017-09-26T05:18:25.282Z,0
2017-09-26T05:19:26.905Z,0
2017-09-26T05:20:28.521Z,0
2017-09-26T05:21:30.139Z,5
2017-09-26T05:22:31.753Z,5
2017-09-26T05:23:33.372Z,5
2017-09-26T05:24:34.990Z,5
2017-09-26T05:25:36.602Z,5
2017-09-26T05:26:38.221Z,5
2017-09-26T05:27:39.831Z,5
2017-09-26T05:28:41.457Z,5
2017-09-26T05:29:43.072Z,11
2017-09-26T05:30:44.689Z,11
2017-09-26T05:31:46.309Z,11
2017-09-26T05:32:47.928Z,11
2017-09-26T05:33:49.556Z,11
2017-09-26T05:34:51.179Z,11
2017-09-26T05:35:52.798Z,11
2017-09-26T05:36:54.421Z,16
2017-09-26T05:37:56.032Z,16
2017-09-26T05:38:57.664Z,16
2017-09-26T05:39:59.271Z,16
2017-09-26T05:41:00.902Z,22
2017-09-26T05:42:02.534Z,22
2017-09-26T05:43:04.160Z,22
2017-09-26T05:44:05.777Z,22
2017-09-26T05:45:07.430Z,28
2017-09-26T05:46:09.046Z,28
2017-09-26T05:47:10.666Z,28
2017-09-26T05:48:12.281Z,28
2017-09-26T05:49:13.904Z,33
2017-09-26T05:50:15.546Z,33
2017-09-26T05:51:17.174Z,33
2017-09-26T05:52:18.791Z,33
2017-09-26T05:53:20.408Z,39
2017-09-26T05:54:22.027Z,39
2017-09-26T05:55:23.963Z,39
2017-09-26T05:56:25.587Z,39
2017-09-26T05:57:27.444Z,39
2017-09-26T05:58:29.035Z,45
2017-09-26T05:59:30.655Z,45
2017-09-26T06:00:32.271Z,45
2017-09-26T06:01:33.886Z,45
2017-09-26T06:02:35.510Z,50
2017-09-26T06:03:37.137Z,45
2017-09-26T06:04:38.754Z,50
2017-09-26T06:05:40.373Z,50
2017-09-26T06:06:41.995Z,50
2017-09-26T06:07:43.616Z,56
2017-09-26T06:08:45.230Z,56
2017-09-26T06:09:46.849Z,61
2017-09-26T06:10:48.476Z,61
2017-09-26T06:11:50.101Z,67
2017-09-26T06:12:51.716Z,67
2017-09-26T06:13:53.331Z,73
2017-09-26T06:14:54.954Z,73
2017-09-26T06:15:56.574Z,73
2017-09-26T06:16:58.190Z,78
2017-09-26T06:18:00.043Z,78
2017-09-26T06:19:01.674Z,78
2017-09-26T06:20:03.293Z,78
2017-09-26T06:21:04.912Z,84
2017-09-26T06:22:06.528Z,84
2017-09-26T06:23:08.158Z,84
2017-09-26T06:24:09.787Z,84
2017-09-26T06:25:11.412Z,90
2017-09-26T06:26:13.126Z,90
2017-09-26T06:27:14.807Z,90
2017-09-26T06:28:16.433Z,95
2017-09-26T06:29:18.073Z,95
2017-09-26T06:30:19.687Z,101
2017-09-26T06:31:21.313Z,101
2017-09-26T06:32:22.930Z,106
2017-09-26T06:33:24.562Z,106
2017-09-26T06:34:26.183Z,106
2017-09-26T06:35:27.837Z,106
2017-09-26T06:36:29.451Z,106
2017-09-26T06:37:31.078Z,112
2017-09-26T06:38:32.694Z,112
2017-09-26T06:39:34.316Z,118
2017-09-26T06:40:35.933Z,118
2017-09-26T06:41:37.554Z,123
2017-09-26T06:42:39.182Z,123
2017-09-26T06:43:40.798Z,129
2017-09-26T06:44:42.426Z,135
2017-09-26T06:45:44.059Z,135
2017-09-26T06:46:45.686Z,140
2017-09-26T06:47:47.303Z,146
2017-09-26T06:48:49.359Z,151
2017-09-26T06:49:52.208Z,151
2017-09-26T06:50:53.861Z,157
2017-09-26T06:51:55.485Z,157
2017-09-26T06:52:57.108Z,163
2017-09-26T06:53:58.725Z,168
2017-09-26T06:55:00.425Z,174
2017-09-26T06:56:02.034Z,174
2017-09-26T06:57:03.658Z,180
2017-09-26T06:58:05.325Z,180
2017-09-26T06:59:06.939Z,185
2017-09-26T07:00:08.582Z,185
2017-09-26T07:01:10.203Z,191
2017-09-26T07:02:11.821Z,196
2017-09-26T07:03:13.445Z,208
2017-09-26T07:04:15.066Z,202
2017-09-26T07:05:16.681Z,213
2017-09-26T07:06:18.308Z,219
2017-09-26T07:07:19.929Z,225
2017-09-26T07:08:21.546Z,230
2017-09-26T07:09:23.169Z,236
2017-09-26T07:10:24.795Z,241
2017-09-26T07:11:26.419Z,253
2017-09-26T07:12:28.038Z,247
2017-09-26T07:13:29.661Z,253
2017-09-26T07:14:31.278Z,258
2017-09-26T07:15:32.900Z,270
2017-09-26T07:16:34.528Z,275
2017-09-26T07:17:36.153Z,286
2017-09-26T07:18:37.771Z,298
2017-09-26T07:19:39.396Z,309
2017-09-26T07:20:41.014Z,309
2017-09-26T07:21:42.631Z,320
2017-09-26T07:22:44.258Z,331
2017-09-26T07:23:45.875Z,337
2017-09-26T07:24:47.502Z,348
2017-09-26T07:25:49.116Z,360
2017-09-26T07:26:50.740Z,365
2017-09-26T07:27:52.355Z,376
2017-09-26T07:28:53.981Z,382
2017-09-26T07:29:55.600Z,388
2017-09-26T07:30:57.228Z,393
2017-09-26T07:31:58.845Z,399
2017-09-26T07:33:00.465Z,399
2017-09-26T07:34:02.078Z,405
2017-09-26T07:35:03.706Z,405
2017-09-26T07:36:05.354Z,405
2017-09-26T07:37:07.037Z,410
2017-09-26T07:38:08.664Z,410
2017-09-26T07:39:10.281Z,416
2017-09-26T07:40:11.904Z,410
2017-09-26T07:41:13.520Z,410
2017-09-26T07:42:15.146Z,410
2017-09-26T07:43:16.764Z,410
2017-09-26T07:44:18.392Z,410
2017-09-26T07:45:20.008Z,410
2017-09-26T07:46:21.633Z,410
2017-09-26T07:47:23.250Z,416
2017-09-26T07:48:25.162Z,421
2017-09-26T07:49:26.779Z,433
2017-09-26T07:50:28.406Z,438
2017-09-26T07:51:30.021Z,444
2017-09-26T07:52:31.648Z,450
2017-09-26T07:53:33.268Z,450
2017-09-26T07:54:34.894Z,455
2017-09-26T07:55:36.513Z,455
2017-09-26T07:56:38.136Z,455
2017-09-26T07:57:39.754Z,461
2017-09-26T07:58:41.379Z,461
2017-09-26T07:59:42.998Z,466
2017-09-26T08:00:44.623Z,472
2017-09-26T08:01:46.247Z,478
2017-09-26T08:02:47.865Z,489
2017-09-26T08:03:49.490Z,500
2017-09-26T08:04:51.116Z,506
2017-09-26T08:05:52.733Z,517
2017-09-26T08:06:54.353Z,528
2017-09-26T08:07:55.986Z,545
2017-09-26T08:08:57.610Z,556
2017-09-26T08:09:59.230Z,579
2017-09-26T08:11:00.849Z,579
2017-09-26T08:12:02.471Z,607
2017-09-26T08:13:04.097Z,618
2017-09-26T08:14:05.716Z,641
2017-09-26T08:15:07.339Z,663
2017-09-26T08:16:08.964Z,686
2017-09-26T08:17:20.380Z,714
2017-09-26T08:18:21.959Z,725
2017-09-26T08:19:23.576Z,742
2017-09-26T08:20:25.205Z,759
2017-09-26T08:21:26.827Z,776
2017-09-26T08:22:28.450Z,798
2017-09-26T08:23:30.073Z,770
2017-09-26T08:24:31.700Z,770
2017-09-26T08:25:33.325Z,742
2017-09-26T08:26:34.979Z,731
2017-09-26T08:27:36.569Z,714
2017-09-26T08:28:38.191Z,708
2017-09-26T08:29:39.820Z,708
2017-09-26T08:30:41.438Z,703
2017-09-26T08:31:43.057Z,708
2017-09-26T08:32:44.686Z,725
2017-09-26T08:33:46.311Z,731
2017-09-26T08:34:47.936Z,753
2017-09-26T08:35:49.561Z,759
2017-09-26T08:36:51.186Z,765
2017-09-26T08:37:52.805Z,793
2017-09-26T08:38:54.429Z,686
2017-09-26T08:39:56.046Z,765
2017-09-26T08:40:57.676Z,849
2017-09-26T08:41:59.296Z,855
2017-09-26T08:43:00.925Z,855
2017-09-26T08:44:02.550Z,855
2017-09-26T08:45:04.172Z,860
2017-09-26T08:46:05.790Z,855
2017-09-26T08:47:07.421Z,871
2017-09-26T08:48:09.047Z,888
2017-09-26T08:49:10.671Z,922
2017-09-26T08:50:12.293Z,978
2017-09-26T08:51:13.919Z,995
2017-09-26T08:52:15.543Z,1209
2017-09-26T08:53:17.163Z,1203
2017-09-26T08:54:18.794Z,1035
2017-09-26T08:55:20.413Z,1046
2017-09-26T08:56:22.048Z,1203
2017-09-26T08:57:23.671Z,1108
2017-09-26T08:58:25.302Z,1400
2017-09-26T08:59:26.921Z,1170
2017-09-26T09:00:28.552Z,1282
2017-09-26T09:01:30.170Z,1524
2017-09-26T09:02:31.797Z,1260
2017-09-26T09:03:33.419Z,1524
2017-09-26T09:04:35.042Z,2193
2017-09-26T09:05:36.681Z,1361
2017-09-26T09:06:38.300Z,1614
2017-09-26T09:07:39.930Z,1366
2017-09-26T09:08:41.553Z,1260
2017-09-26T09:09:43.188Z,1406
2017-09-26T09:10:44.814Z,1878
2017-09-26T09:11:46.436Z,1423
2017-09-26T09:12:48.061Z,1681
2017-09-26T09:13:49.695Z,1653
2017-09-26T09:14:51.320Z,2182
2017-09-26T09:15:52.946Z,1569
2017-09-26T09:16:54.583Z,1569
2017-09-26T09:17:56.206Z,1501
2017-09-26T09:18:57.830Z,1400
2017-09-26T09:19:59.462Z,1344
2017-09-26T09:21:01.101Z,1338
2017-09-26T09:22:02.732Z,1248
2017-09-26T09:23:04.360Z,1209
2017-09-26T09:24:05.986Z,1215
2017-09-26T09:25:07.615Z,1271
2017-09-26T09:26:09.249Z,1338
2017-09-26T09:27:10.878Z,1383
2017-09-26T09:28:12.502Z,1400
2017-09-26T09:29:14.130Z,1513
2017-09-26T09:30:15.763Z,2998
2017-09-26T09:31:17.392Z,1906
2017-09-26T09:32:19.017Z,1715
2017-09-26T09:33:20.649Z,1704
2017-09-26T09:34:22.278Z,1659
2017-09-26T09:35:23.904Z,2323
2017-09-26T09:36:25.528Z,3976
2017-09-26T09:37:27.158Z,2486
2017-09-26T09:38:28.783Z,2244
2017-09-26T09:39:30.415Z,2638
2017-09-26T09:40:32.043Z,4010
2017-09-26T09:41:33.674Z,4033
2017-09-26T09:42:35.305Z,4027
2017-09-26T09:43:36.929Z,3903
2017-09-26T09:44:38.566Z,3808
2017-09-26T09:45:40.193Z,3909
2017-09-26T09:46:41.843Z,3892
2017-09-26T09:47:43.478Z,3757
2017-09-26T09:48:45.123Z,3780
2017-09-26T09:49:46.761Z,3870
2017-09-26T09:50:48.409Z,3802
2017-09-26T09:51:50.046Z,3583
2017-09-26T09:52:51.743Z,3526
2017-09-26T09:53:53.343Z,3532
2017-09-26T09:54:54.980Z,3555
2017-09-26T09:55:56.620Z,3684
2017-09-26T09:56:58.273Z,3729
2017-09-26T09:57:59.933Z,3802
2017-09-26T09:59:01.575Z,3791
2017-09-26T10:00:03.259Z,3740
2017-09-26T10:01:04.899Z,3667
2017-09-26T10:02:06.542Z,3701
2017-09-26T10:03:08.189Z,3600
2017-09-26T10:04:09.836Z,1209
2017-09-26T10:05:11.475Z,843
2017-09-26T10:06:14.693Z,2632
2017-09-26T10:07:17.998Z,3825
2017-09-26T10:08:22.163Z,2671
2017-09-26T10:09:24.971Z,3909
2017-09-26T10:10:28.796Z,3346
2017-09-26T10:11:32.299Z,3678
2017-09-26T10:12:36.730Z,3746
2017-09-26T10:13:41.330Z,3616
2017-09-26T10:14:46.386Z,3639
2017-09-26T10:15:52.388Z,3661
2017-09-26T10:16:53.169Z,3948
2017-09-26T10:17:54.858Z,4061
2017-09-26T10:18:56.462Z,3110
2017-09-26T10:19:58.103Z,3791
2017-09-26T10:20:59.745Z,3858
2017-09-26T10:22:01.390Z,3600
2017-09-26T10:23:03.039Z,3605
2017-09-26T10:24:04.678Z,3881
2017-09-26T10:25:06.332Z,3830
2017-09-26T10:26:07.994Z,3751
2017-09-26T10:27:09.642Z,3116
2017-09-26T10:28:11.291Z,3712
2017-09-26T10:29:12.982Z,3864
2017-09-26T10:30:14.630Z,3881
2017-09-26T10:31:16.270Z,3048
2017-09-26T10:32:17.922Z,3346
2017-09-26T10:33:19.582Z,4033
2017-09-26T10:34:21.215Z,4055
2017-09-26T10:35:22.845Z,4005
2017-09-26T10:36:24.502Z,3943
2017-09-26T10:37:26.139Z,3858
2017-09-26T10:38:27.778Z,3650
2017-09-26T10:39:29.424Z,3616
2017-09-26T10:40:31.059Z,1428
2017-09-26T10:41:32.691Z,3363
2017-09-26T10:42:34.340Z,1485
2017-09-26T10:43:35.978Z,1074
2017-09-26T10:44:37.618Z,1130
2017-09-26T10:45:39.254Z,2536
2017-09-26T10:46:40.902Z,3751
2017-09-26T10:47:42.545Z,3819
2017-09-26T10:48:44.180Z,3763
2017-09-26T10:49:45.812Z,3504
2017-09-26T10:50:47.467Z,3571
2017-09-26T10:51:49.108Z,2086
2017-09-26T10:52:50.744Z,2030
2017-09-26T10:53:52.382Z,2070
2017-09-26T10:54:54.017Z,1400
2017-09-26T10:55:55.661Z,1693
2017-09-26T10:56:57.881Z,3673
2017-09-26T10:57:59.531Z,3571
2017-09-26T10:59:01.168Z,3650
2017-09-26T11:00:02.805Z,3577
2017-09-26T11:01:04.438Z,3420
2017-09-26T11:02:06.084Z,3566
2017-09-26T11:03:07.730Z,3633
2017-09-26T11:04:09.379Z,3633
2017-09-26T11:05:11.045Z,3594
2017-09-26T11:06:12.688Z,3650
2017-09-26T11:07:14.325Z,3656
2017-09-26T11:08:15.962Z,3690
2017-09-26T11:09:17.607Z,3706
2017-09-26T11:10:19.243Z,3796
2017-09-26T11:11:20.921Z,3678
2017-09-26T11:12:22.556Z,3616
2017-09-26T11:13:24.218Z,3616
2017-09-26T11:14:25.850Z,3701
2017-09-26T11:15:27.493Z,3645
2017-09-26T11:16:29.132Z,3712
2017-09-26T11:17:30.772Z,3588
2017-09-26T11:18:32.421Z,3549
2017-09-26T11:19:34.078Z,3566
2017-09-26T11:20:35.727Z,3543
2017-09-26T11:21:37.373Z,3577
2017-09-26T11:22:39.011Z,3526
2017-09-26T11:23:40.676Z,3543
2017-09-26T11:24:42.339Z,3498
2017-09-26T11:25:43.977Z,3442
2017-09-26T11:26:45.633Z,3414
2017-09-26T11:27:47.285Z,3352
2017-09-26T11:28:48.955Z,1158
2017-09-26T11:29:50.600Z,1935
2017-09-26T11:30:52.248Z,1040
2017-09-26T11:31:53.889Z,866
2017-09-26T11:32:55.553Z,810
2017-09-26T11:33:57.191Z,787
2017-09-26T11:34:58.827Z,770
2017-09-26T11:36:00.473Z,759
2017-09-26T11:37:02.161Z,798
2017-09-26T11:38:03.808Z,832
2017-09-26T11:39:05.442Z,860
2017-09-26T11:40:07.092Z,888
2017-09-26T11:41:08.733Z,2480
2017-09-26T11:42:10.373Z,2970
2017-09-26T11:43:12.010Z,2998
2017-09-26T11:44:13.671Z,2913
2017-09-26T11:45:15.302Z,2098
2017-09-26T11:46:16.931Z,2733
2017-09-26T11:47:18.571Z,3155
2017-09-26T11:48:20.216Z,3105
2017-09-26T11:49:21.862Z,2975
2017-09-26T11:50:23.494Z,2925
2017-09-26T11:51:25.144Z,2958
2017-09-26T11:52:26.779Z,2958
2017-09-26T11:53:28.420Z,2806
2017-09-26T11:54:30.082Z,2874
2017-09-26T11:55:31.709Z,2857
2017-09-26T11:56:33.339Z,2874
2017-09-26T11:57:34.978Z,2964
2017-09-26T11:58:36.607Z,2970
2017-09-26T11:59:38.244Z,2953
2017-09-26T12:00:39.868Z,2508
2017-09-26T12:01:41.507Z,2559
2017-09-26T12:02:43.161Z,2385
2017-09-26T12:03:44.821Z,2784
2017-09-26T12:04:46.462Z,2700
2017-09-26T12:05:48.111Z,2829
2017-09-26T12:06:49.758Z,2806
2017-09-26T12:07:51.402Z,2851
2017-09-26T12:08:53.128Z,2913
2017-09-26T12:09:54.770Z,2874
2017-09-26T12:10:56.409Z,2801
2017-09-26T12:11:58.045Z,2840
2017-09-26T12:12:59.690Z,2756
2017-09-26T12:14:01.315Z,2863
2017-09-26T12:15:02.988Z,2795
2017-09-26T12:16:04.615Z,2626
2017-09-26T12:17:06.250Z,2593
2017-09-26T12:18:07.888Z,2649
2017-09-26T12:19:09.603Z,2739
2017-09-26T12:20:11.235Z,2688
2017-09-26T12:21:13.228Z,2553
2017-09-26T12:22:14.864Z,2587
2017-09-26T12:23:16.512Z,2413
2017-09-26T12:24:18.158Z,2621
2017-09-26T12:25:19.786Z,2632
2017-09-26T12:26:21.469Z,916
2017-09-26T12:27:23.094Z,900
2017-09-26T12:28:24.736Z,911
2017-09-26T12:29:26.357Z,945
2017-09-26T12:30:28.030Z,961
2017-09-26T12:31:29.659Z,1119
2017-09-26T12:32:31.293Z,1766
2017-09-26T12:33:32.953Z,2019
2017-09-26T12:34:34.586Z,1440
2017-09-26T12:35:36.354Z,905
2017-09-26T12:36:39.691Z,888
2017-09-26T12:37:41.286Z,860
2017-09-26T12:38:42.912Z,1057
2017-09-26T12:39:44.547Z,990
2017-09-26T12:40:46.187Z,911
2017-09-26T12:41:47.820Z,534
2017-09-26T12:42:49.442Z,489
2017-09-26T12:43:54.026Z,450
2017-09-26T12:44:55.630Z,416
2017-09-26T12:45:57.252Z,399
2017-09-26T12:46:58.877Z,393
2017-09-26T12:48:00.510Z,382
2017-09-26T12:49:02.143Z,388
2017-09-26T12:50:03.767Z,376
2017-09-26T12:51:05.395Z,371
2017-09-26T12:52:07.021Z,365
2017-09-26T12:53:08.652Z,360
2017-09-26T12:54:10.281Z,365
2017-09-26T12:55:11.909Z,376
2017-09-26T12:56:13.540Z,382
2017-09-26T12:57:15.162Z,393
2017-09-26T12:58:16.835Z,393
2017-09-26T12:59:18.455Z,388
2017-09-26T13:00:21.194Z,371
2017-09-26T13:01:22.812Z,348
2017-09-26T13:02:24.764Z,326
2017-09-26T13:03:31.904Z,303
2017-09-26T13:04:33.526Z,292
2017-09-26T13:05:35.150Z,286
2017-09-26T13:06:36.780Z,281
2017-09-26T13:07:38.409Z,281
2017-09-26T13:08:40.038Z,281
2017-09-26T13:09:41.668Z,275
2017-09-26T13:10:43.295Z,270
2017-09-26T13:11:44.917Z,264
2017-09-26T13:12:46.537Z,253
2017-09-26T13:13:48.162Z,241
2017-09-26T13:14:49.791Z,225
2017-09-26T13:15:51.422Z,213
2017-09-26T13:16:53.041Z,213
2017-09-26T13:17:54.673Z,202
2017-09-26T13:18:56.292Z,191
2017-09-26T13:19:57.917Z,185
2017-09-26T13:20:59.538Z,185
2017-09-26T13:22:01.168Z,185
2017-09-26T13:23:02.791Z,180
2017-09-26T13:24:04.414Z,180
2017-09-26T13:25:06.040Z,180
2017-09-26T13:26:07.666Z,174
2017-09-26T13:27:09.295Z,168
2017-09-26T13:28:10.918Z,168
2017-09-26T13:29:12.548Z,174
2017-09-26T13:30:14.174Z,174
2017-09-26T13:31:15.796Z,168
2017-09-26T13:32:17.426Z,168
2017-09-26T13:33:19.046Z,157
2017-09-26T13:34:20.667Z,151
2017-09-26T13:35:22.297Z,146
2017-09-26T13:36:23.925Z,140
2017-09-26T13:37:25.545Z,135
2017-09-26T13:38:27.169Z,129
2017-09-26T13:39:28.801Z,129
2017-09-26T13:40:30.421Z,129
2017-09-26T13:41:32.063Z,123
2017-09-26T13:42:33.694Z,118
2017-09-26T13:43:35.310Z,112
2017-09-26T13:44:36.934Z,95
2017-09-26T13:45:38.563Z,78
2017-09-26T13:46:40.185Z,61
2017-09-26T13:47:41.808Z,45
2017-09-26T13:48:43.436Z,39
2017-09-26T13:49:45.056Z,33
2017-09-26T13:50:46.676Z,28
2017-09-26T13:51:48.305Z,33
2017-09-26T13:52:49.928Z,28
2017-09-26T13:53:51.550Z,28
2017-09-26T13:54:53.162Z,28
2017-09-26T13:55:54.789Z,22
2017-09-26T13:56:56.406Z,16
2017-09-26T13:57:58.026Z,16
2017-09-26T13:58:59.650Z,11
2017-09-26T14:00:01.274Z,16
2017-09-26T14:01:02.896Z,16
2017-09-26T14:02:04.518Z,16
2017-09-26T14:03:06.135Z,22
2017-09-26T14:04:07.759Z,22
2017-09-26T14:05:09.371Z,22
2017-09-26T14:06:11.867Z,28
2017-09-26T14:07:13.484Z,28
2017-09-26T14:08:15.115Z,33
2017-09-26T14:09:16.730Z,33
2017-09-26T14:10:18.355Z,33
2017-09-26T14:11:19.972Z,33
2017-09-26T14:12:21.595Z,33
2017-09-26T14:13:23.219Z,33
2017-09-26T14:14:24.841Z,28
2017-09-26T14:15:26.469Z,28
2017-09-26T14:16:28.081Z,28
2017-09-26T14:17:29.702Z,28
2017-09-26T14:18:31.317Z,28
2017-09-26T14:19:32.944Z,28
2017-09-26T14:20:34.563Z,28
2017-09-26T14:21:36.186Z,28
2017-09-26T14:22:37.801Z,28
2017-09-26T14:23:39.415Z,28
2017-09-26T14:24:41.039Z,28
2017-09-26T14:25:42.663Z,28
2017-09-26T14:26:44.282Z,22
2017-09-26T14:27:45.899Z,22